sensor_id;sensor_type;location;lat;lon;timestamp;P1;durP1;ratioP1;P2;durP2;ratioP2
22863;SDS011;11599;49.882;8.680;2023-06-05T00:09:04;3.20;;;1.33;;
22863;SDS011;11599;49.882;8.680;2023-06-05T00:19:26;5.93;;;1.47;;
22863;SDS011;11599;49.882;8.680;2023-06-05T00:29:49;1.90;;;1.10;;
22863;SDS011;11599;49.882;8.680;2023-06-05T00:40:11;3.23;;;1.30;;
22863;SDS011;11599;49.882;8.680;2023-06-05T00:50:34;1.83;;;1.00;;
22863;SDS011;11599;49.882;8.680;2023-06-05T01:00:57;2.47;;;1.20;;
22863;SDS011;11599;49.882;8.680;2023-06-05T01:11:22;3.40;;;1.27;;
22863;SDS011;11599;49.882;8.680;2023-06-05T01:21:46;2.57;;;1.20;;
22863;SDS011;11599;49.882;8.680;2023-06-05T01:32:10;3.47;;;1.30;;
22863;SDS011;11599;49.882;8.680;2023-06-05T01:42:36;4.23;;;1.37;;
22863;SDS011;11599;49.882;8.680;2023-06-05T01:52:59;2.00;;;1.10;;
22863;SDS011;11599;49.882;8.680;2023-06-05T02:03:24;2.37;;;1.30;;
22863;SDS011;11599;49.882;8.680;2023-06-05T02:13:47;3.20;;;1.20;;
22863;SDS011;11599;49.882;8.680;2023-06-05T02:24:13;2.90;;;1.10;;
22863;SDS011;11599;49.882;8.680;2023-06-05T02:34:36;1.57;;;1.03;;
22863;SDS011;11599;49.882;8.680;2023-06-05T02:44:58;3.13;;;1.30;;
22863;SDS011;11599;49.882;8.680;2023-06-05T02:55:23;2.77;;;1.33;;
22863;SDS011;11599;49.882;8.680;2023-06-05T03:05:47;5.97;;;1.27;;
22863;SDS011;11599;49.882;8.680;2023-06-05T03:16:12;3.23;;;1.20;;
22863;SDS011;11599;49.882;8.680;2023-06-05T03:26:39;4.20;;;1.40;;
22863;SDS011;11599;49.882;8.680;2023-06-05T03:37:04;2.60;;;1.27;;
22863;SDS011;11599;49.882;8.680;2023-06-05T03:47:26;3.07;;;1.30;;
22863;SDS011;11599;49.882;8.680;2023-06-05T03:57:50;3.57;;;1.40;;
22863;SDS011;11599;49.882;8.680;2023-06-05T04:08:13;4.00;;;1.60;;
22863;SDS011;11599;49.882;8.680;2023-06-05T04:18:41;3.40;;;1.27;;
22863;SDS011;11599;49.882;8.680;2023-06-05T04:29:04;5.07;;;1.40;;
22863;SDS011;11599;49.882;8.680;2023-06-05T04:39:32;2.97;;;1.43;;
22863;SDS011;11599;49.882;8.680;2023-06-05T04:49:53;6.27;;;1.40;;
22863;SDS011;11599;49.882;8.680;2023-06-05T05:00:19;4.03;;;1.00;;
22863;SDS011;11599;49.882;8.680;2023-06-05T05:10:43;3.97;;;1.30;;
22863;SDS011;11599;49.882;8.680;2023-06-05T05:21:06;2.63;;;1.20;;
22863;SDS011;11599;49.882;8.680;2023-06-05T05:31:28;3.97;;;1.20;;
22863;SDS011;11599;49.882;8.680;2023-06-05T05:41:53;4.23;;;1.20;;
22863;SDS011;11599;49.882;8.680;2023-06-05T05:52:14;5.33;;;1.47;;
22863;SDS011;11599;49.882;8.680;2023-06-05T06:02:37;4.23;;;1.40;;
22863;SDS011;11599;49.882;8.680;2023-06-05T06:12:59;5.73;;;1.27;;
22863;SDS011;11599;49.882;8.680;2023-06-05T06:23:23;11.13;;;1.40;;
22863;SDS011;11599;49.882;8.680;2023-06-05T06:33:44;2.90;;;1.20;;
22863;SDS011;11599;49.882;8.680;2023-06-05T06:44:08;6.33;;;1.67;;
22863;SDS011;11599;49.882;8.680;2023-06-05T06:54:29;3.17;;;1.20;;
22863;SDS011;11599;49.882;8.680;2023-06-05T07:04:52;2.20;;;1.23;;
22863;SDS011;11599;49.882;8.680;2023-06-05T07:15:15;3.87;;;1.23;;
22863;SDS011;11599;49.882;8.680;2023-06-05T07:25:38;6.70;;;1.40;;
22863;SDS011;11599;49.882;8.680;2023-06-05T07:36:00;5.43;;;1.53;;
22863;SDS011;11599;49.882;8.680;2023-06-05T07:46:23;9.00;;;1.70;;
22863;SDS011;11599;49.882;8.680;2023-06-05T07:56:45;2.95;;;1.30;;
22863;SDS011;11599;49.882;8.680;2023-06-05T08:07:10;4.13;;;1.50;;
22863;SDS011;11599;49.882;8.680;2023-06-05T08:17:32;3.22;;;1.52;;
22863;SDS011;11599;49.882;8.680;2023-06-05T08:27:54;2.65;;;1.25;;
22863;SDS011;11599;49.882;8.680;2023-06-05T08:38:16;6.50;;;1.70;;
22863;SDS011;11599;49.882;8.680;2023-06-05T08:48:40;4.38;;;1.60;;
22863;SDS011;11599;49.882;8.680;2023-06-05T08:59:04;4.13;;;1.45;;
22863;SDS011;11599;49.882;8.680;2023-06-05T09:09:26;5.10;;;2.05;;
22863;SDS011;11599;49.882;8.680;2023-06-05T09:19:48;4.65;;;1.88;;
22863;SDS011;11599;49.882;8.680;2023-06-05T09:30:12;4.93;;;1.70;;
22863;SDS011;11599;49.882;8.680;2023-06-05T09:40:37;2.63;;;1.65;;
22863;SDS011;11599;49.882;8.680;2023-06-05T09:51:07;2.47;;;1.60;;
22863;SDS011;11599;49.882;8.680;2023-06-05T10:01:29;3.28;;;1.90;;
22863;SDS011;11599;49.882;8.680;2023-06-05T10:11:52;3.00;;;1.90;;
22863;SDS011;11599;49.882;8.680;2023-06-05T10:22:16;4.22;;;1.70;;
22863;SDS011;11599;49.882;8.680;2023-06-05T10:32:43;4.00;;;1.70;;
22863;SDS011;11599;49.882;8.680;2023-06-05T10:43:24;3.95;;;1.60;;
22863;SDS011;11599;49.882;8.680;2023-06-05T10:53:47;3.28;;;1.65;;
22863;SDS011;11599;49.882;8.680;2023-06-05T11:04:08;4.40;;;1.48;;
22863;SDS011;11599;49.882;8.680;2023-06-05T11:14:43;7.20;;;1.75;;
22863;SDS011;11599;49.882;8.680;2023-06-05T11:35:48;3.07;;;1.90;;
22863;SDS011;11599;49.882;8.680;2023-06-05T11:46:10;3.40;;;2.00;;
22863;SDS011;11599;49.882;8.680;2023-06-05T11:56:33;2.33;;;1.80;;
22863;SDS011;11599;49.882;8.680;2023-06-05T12:06:57;4.78;;;1.90;;
22863;SDS011;11599;49.882;8.680;2023-06-05T12:17:21;4.07;;;1.60;;
22863;SDS011;11599;49.882;8.680;2023-06-05T12:27:42;4.80;;;1.85;;
22863;SDS011;11599;49.882;8.680;2023-06-05T12:38:06;5.18;;;2.13;;
22863;SDS011;11599;49.882;8.680;2023-06-05T12:58:49;3.58;;;1.88;;
22863;SDS011;11599;49.882;8.680;2023-06-05T13:09:12;3.25;;;1.90;;
22863;SDS011;11599;49.882;8.680;2023-06-05T13:29:51;2.80;;;1.88;;
22863;SDS011;11599;49.882;8.680;2023-06-05T13:40:19;2.72;;;1.60;;
22863;SDS011;11599;49.882;8.680;2023-06-05T13:50:43;5.15;;;2.03;;
22863;SDS011;11599;49.882;8.680;2023-06-05T14:21:40;3.10;;;2.05;;
22863;SDS011;11599;49.882;8.680;2023-06-05T14:53:00;8.13;;;1.90;;
22863;SDS011;11599;49.882;8.680;2023-06-05T15:03:16;5.55;;;2.80;;
22863;SDS011;11599;49.882;8.680;2023-06-05T15:13:39;4.95;;;2.03;;
22863;SDS011;11599;49.882;8.680;2023-06-05T15:24:02;2.65;;;1.70;;
22863;SDS011;11599;49.882;8.680;2023-06-05T15:34:24;5.65;;;2.00;;
22863;SDS011;11599;49.882;8.680;2023-06-05T15:44:46;5.30;;;2.10;;
22863;SDS011;11599;49.882;8.680;2023-06-05T15:55:09;6.90;;;1.95;;
22863;SDS011;11599;49.882;8.680;2023-06-05T16:05:30;3.67;;;1.90;;
22863;SDS011;11599;49.882;8.680;2023-06-05T16:15:53;3.83;;;2.00;;
22863;SDS011;11599;49.882;8.680;2023-06-05T16:26:15;5.75;;;2.05;;
22863;SDS011;11599;49.882;8.680;2023-06-05T16:36:41;6.00;;;1.90;;
22863;SDS011;11599;49.882;8.680;2023-06-05T16:47:03;6.78;;;1.90;;
22863;SDS011;11599;49.882;8.680;2023-06-05T16:57:30;3.92;;;1.95;;
22863;SDS011;11599;49.882;8.680;2023-06-05T17:07:57;2.88;;;1.85;;
22863;SDS011;11599;49.882;8.680;2023-06-05T17:18:20;6.43;;;1.88;;
22863;SDS011;11599;49.882;8.680;2023-06-05T17:28:46;4.72;;;1.67;;
22863;SDS011;11599;49.882;8.680;2023-06-05T17:39:12;3.38;;;2.00;;
22863;SDS011;11599;49.882;8.680;2023-06-05T17:49:33;3.55;;;1.80;;
22863;SDS011;11599;49.882;8.680;2023-06-05T18:00:00;3.33;;;1.77;;
22863;SDS011;11599;49.882;8.680;2023-06-05T18:10:22;3.30;;;1.90;;
22863;SDS011;11599;49.882;8.680;2023-06-05T18:20:45;3.08;;;2.00;;
22863;SDS011;11599;49.882;8.680;2023-06-05T18:31:06;5.65;;;1.65;;
22863;SDS011;11599;49.882;8.680;2023-06-05T18:41:29;7.05;;;1.83;;
22863;SDS011;11599;49.882;8.680;2023-06-05T18:51:51;2.88;;;1.90;;
22863;SDS011;11599;49.882;8.680;2023-06-05T19:02:15;4.43;;;2.10;;
22863;SDS011;11599;49.882;8.680;2023-06-05T19:12:37;4.32;;;2.03;;
22863;SDS011;11599;49.882;8.680;2023-06-05T19:23:02;4.53;;;2.07;;
22863;SDS011;11599;49.882;8.680;2023-06-05T19:33:23;2.25;;;1.63;;
22863;SDS011;11599;49.882;8.680;2023-06-05T19:43:46;4.53;;;2.20;;
22863;SDS011;11599;49.882;8.680;2023-06-05T19:54:08;4.13;;;2.03;;
22863;SDS011;11599;49.882;8.680;2023-06-05T20:04:31;6.23;;;2.13;;
22863;SDS011;11599;49.882;8.680;2023-06-05T20:14:52;11.60;;;2.30;;
22863;SDS011;11599;49.882;8.680;2023-06-05T20:25:15;5.97;;;2.23;;
22863;SDS011;11599;49.882;8.680;2023-06-05T20:35:39;5.10;;;2.23;;
22863;SDS011;11599;49.882;8.680;2023-06-05T20:46:02;6.97;;;2.30;;
22863;SDS011;11599;49.882;8.680;2023-06-05T20:56:24;5.67;;;2.27;;
22863;SDS011;11599;49.882;8.680;2023-06-05T21:06:48;6.47;;;2.43;;
22863;SDS011;11599;49.882;8.680;2023-06-05T21:17:09;4.93;;;2.47;;
22863;SDS011;11599;49.882;8.680;2023-06-05T21:27:32;6.83;;;2.60;;
22863;SDS011;11599;49.882;8.680;2023-06-05T21:37:54;5.47;;;2.67;;
22863;SDS011;11599;49.882;8.680;2023-06-05T21:48:18;4.90;;;2.58;;
22863;SDS011;11599;49.882;8.680;2023-06-05T21:58:42;9.93;;;2.33;;
22863;SDS011;11599;49.882;8.680;2023-06-05T22:09:08;5.35;;;2.60;;
22863;SDS011;11599;49.882;8.680;2023-06-05T22:19:29;4.25;;;2.78;;
22863;SDS011;11599;49.882;8.680;2023-06-05T22:29:52;5.65;;;2.97;;
22863;SDS011;11599;49.882;8.680;2023-06-05T22:40:14;4.72;;;2.92;;
22863;SDS011;11599;49.882;8.680;2023-06-05T22:50:36;6.82;;;3.13;;
22863;SDS011;11599;49.882;8.680;2023-06-05T23:00:58;4.20;;;2.92;;
22863;SDS011;11599;49.882;8.680;2023-06-05T23:11:21;8.82;;;3.20;;
22863;SDS011;11599;49.882;8.680;2023-06-05T23:21:42;5.65;;;3.30;;
22863;SDS011;11599;49.882;8.680;2023-06-05T23:32:06;5.38;;;3.30;;
22863;SDS011;11599;49.882;8.680;2023-06-05T23:42:28;6.13;;;3.13;;
22863;SDS011;11599;49.882;8.680;2023-06-05T23:52:52;8.10;;;2.87;;
